sensor_id;sensor_type;location;lat;lon;timestamp;P1;durP1;ratioP1;P2;durP2;ratioP2
17818;SDS011;9034;50.284;19.310;2023-06-19T00:00:41;8.40;;;7.70;;
17818;SDS011;9034;50.284;19.310;2023-06-19T00:01:43;8.05;;;6.93;;
17818;SDS011;9034;50.284;19.310;2023-06-19T00:02:45;7.50;;;6.80;;
17818;SDS011;9034;50.284;19.310;2023-06-19T00:03:49;8.13;;;7.43;;
17818;SDS011;9034;50.284;19.310;2023-06-19T00:04:50;7.32;;;6.70;;
17818;SDS011;9034;50.284;19.310;2023-06-19T00:05:53;7.95;;;7.25;;
17818;SDS011;9034;50.284;19.310;2023-06-19T00:06:56;8.00;;;7.30;;
17818;SDS011;9034;50.284;19.310;2023-06-19T00:07:58;7.82;;;7.07;;
17818;SDS011;9034;50.284;19.310;2023-06-19T00:09:01;7.95;;;7.18;;
17818;SDS011;9034;50.284;19.310;2023-06-19T00:10:06;8.10;;;7.32;;
17818;SDS011;9034;50.284;19.310;2023-06-19T00:11:09;8.10;;;7.40;;
17818;SDS011;9034;50.284;19.310;2023-06-19T00:12:11;7.88;;;7.18;;
17818;SDS011;9034;50.284;19.310;2023-06-19T00:13:15;8.38;;;7.43;;
17818;SDS011;9034;50.284;19.310;2023-06-19T00:14:18;7.93;;;7.05;;
17818;SDS011;9034;50.284;19.310;2023-06-19T00:15:21;8.55;;;7.72;;
17818;SDS011;9034;50.284;19.310;2023-06-19T00:16:23;9.23;;;8.15;;
17818;SDS011;9034;50.284;19.310;2023-06-19T00:17:27;9.43;;;8.52;;
17818;SDS011;9034;50.284;19.310;2023-06-19T00:18:29;8.77;;;7.55;;
17818;SDS011;9034;50.284;19.310;2023-06-19T00:19:32;8.20;;;7.40;;
17818;SDS011;9034;50.284;19.310;2023-06-19T00:20:37;10.80;;;8.32;;
17818;SDS011;9034;50.284;19.310;2023-06-19T00:21:40;8.18;;;7.40;;
17818;SDS011;9034;50.284;19.310;2023-06-19T00:22:44;7.20;;;6.50;;
17818;SDS011;9034;50.284;19.310;2023-06-19T00:23:52;6.03;;;5.18;;
17818;SDS011;9034;50.284;19.310;2023-06-19T00:24:54;6.47;;;5.88;;
17818;SDS011;9034;50.284;19.310;2023-06-19T00:25:57;7.07;;;6.38;;
17818;SDS011;9034;50.284;19.310;2023-06-19T00:27:02;6.75;;;6.05;;
17818;SDS011;9034;50.284;19.310;2023-06-19T00:28:05;7.95;;;6.65;;
17818;SDS011;9034;50.284;19.310;2023-06-19T00:29:16;6.25;;;5.75;;
17818;SDS011;9034;50.284;19.310;2023-06-19T00:30:19;7.03;;;6.43;;
17818;SDS011;9034;50.284;19.310;2023-06-19T00:31:21;6.65;;;6.05;;
17818;SDS011;9034;50.284;19.310;2023-06-19T00:32:24;6.10;;;5.55;;
17818;SDS011;9034;50.284;19.310;2023-06-19T00:33:26;7.95;;;7.15;;
17818;SDS011;9034;50.284;19.310;2023-06-19T00:34:29;7.25;;;6.55;;
17818;SDS011;9034;50.284;19.310;2023-06-19T00:35:31;7.80;;;7.10;;
17818;SDS011;9034;50.284;19.310;2023-06-19T00:36:34;8.43;;;7.63;;
17818;SDS011;9034;50.284;19.310;2023-06-19T00:37:41;8.57;;;7.78;;
17818;SDS011;9034;50.284;19.310;2023-06-19T00:38:46;7.65;;;6.95;;
17818;SDS011;9034;50.284;19.310;2023-06-19T00:39:48;7.57;;;6.88;;
17818;SDS011;9034;50.284;19.310;2023-06-19T00:40:51;8.07;;;7.28;;
17818;SDS011;9034;50.284;19.310;2023-06-19T00:41:53;8.25;;;7.45;;
17818;SDS011;9034;50.284;19.310;2023-06-19T00:42:56;8.23;;;6.78;;
17818;SDS011;9034;50.284;19.310;2023-06-19T00:43:58;8.00;;;7.20;;
17818;SDS011;9034;50.284;19.310;2023-06-19T00:45:02;6.72;;;6.13;;
17818;SDS011;9034;50.284;19.310;2023-06-19T00:46:04;7.38;;;6.40;;
17818;SDS011;9034;50.284;19.310;2023-06-19T00:47:07;9.88;;;8.10;;
17818;SDS011;9034;50.284;19.310;2023-06-19T00:48:09;9.15;;;8.25;;
17818;SDS011;9034;50.284;19.310;2023-06-19T00:49:12;9.55;;;8.65;;
17818;SDS011;9034;50.284;19.310;2023-06-19T00:50:15;10.25;;;9.10;;
17818;SDS011;9034;50.284;19.310;2023-06-19T00:51:18;11.00;;;9.90;;
17818;SDS011;9034;50.284;19.310;2023-06-19T00:52:20;7.90;;;7.18;;
17818;SDS011;9034;50.284;19.310;2023-06-19T00:53:23;7.75;;;7.05;;
17818;SDS011;9034;50.284;19.310;2023-06-19T00:54:25;8.88;;;6.10;;
17818;SDS011;9034;50.284;19.310;2023-06-19T00:55:29;7.10;;;6.40;;
17818;SDS011;9034;50.284;19.310;2023-06-19T00:56:31;7.22;;;6.63;;
17818;SDS011;9034;50.284;19.310;2023-06-19T00:57:36;7.47;;;6.78;;
17818;SDS011;9034;50.284;19.310;2023-06-19T00:58:38;7.70;;;7.00;;
17818;SDS011;9034;50.284;19.310;2023-06-19T00:59:41;7.97;;;7.28;;
17818;SDS011;9034;50.284;19.310;2023-06-19T01:00:44;9.60;;;8.70;;
17818;SDS011;9034;50.284;19.310;2023-06-19T01:02:04;10.45;;;9.38;;
17818;SDS011;9034;50.284;19.310;2023-06-19T01:03:06;10.52;;;9.43;;
17818;SDS011;9034;50.284;19.310;2023-06-19T01:04:10;10.55;;;9.45;;
17818;SDS011;9034;50.284;19.310;2023-06-19T01:05:12;11.10;;;10.00;;
17818;SDS011;9034;50.284;19.310;2023-06-19T01:06:15;11.57;;;9.00;;
17818;SDS011;9034;50.284;19.310;2023-06-19T01:07:25;10.85;;;9.75;;
17818;SDS011;9034;50.284;19.310;2023-06-19T01:08:43;11.93;;;10.38;;
17818;SDS011;9034;50.284;19.310;2023-06-19T01:09:51;9.75;;;8.75;;
17818;SDS011;9034;50.284;19.310;2023-06-19T01:10:57;8.88;;;8.07;;
17818;SDS011;9034;50.284;19.310;2023-06-19T01:12:08;7.95;;;7.25;;
17818;SDS011;9034;50.284;19.310;2023-06-19T01:13:19;9.25;;;6.78;;
17818;SDS011;9034;50.284;19.310;2023-06-19T01:14:26;8.20;;;7.50;;
17818;SDS011;9034;50.284;19.310;2023-06-19T01:15:32;7.70;;;7.00;;
17818;SDS011;9034;50.284;19.310;2023-06-19T01:16:36;6.82;;;6.22;;
17818;SDS011;9034;50.284;19.310;2023-06-19T01:17:40;8.98;;;7.20;;
17818;SDS011;9034;50.284;19.310;2023-06-19T01:18:42;7.28;;;6.57;;
17818;SDS011;9034;50.284;19.310;2023-06-19T01:19:48;7.80;;;7.00;;
17818;SDS011;9034;50.284;19.310;2023-06-19T01:20:51;6.05;;;5.55;;
17818;SDS011;9034;50.284;19.310;2023-06-19T01:21:54;6.38;;;5.72;;
17818;SDS011;9034;50.284;19.310;2023-06-19T01:22:57;8.25;;;7.40;;
17818;SDS011;9034;50.284;19.310;2023-06-19T01:24:00;7.78;;;6.53;;
17818;SDS011;9034;50.284;19.310;2023-06-19T01:25:03;7.80;;;7.10;;
17818;SDS011;9034;50.284;19.310;2023-06-19T01:27:43;9.00;;;8.13;;
17818;SDS011;9034;50.284;19.310;2023-06-19T01:28:46;11.93;;;6.70;;
17818;SDS011;9034;50.284;19.310;2023-06-19T01:29:48;8.70;;;7.90;;
17818;SDS011;9034;50.284;19.310;2023-06-19T01:30:51;8.15;;;6.78;;
17818;SDS011;9034;50.284;19.310;2023-06-19T01:31:59;6.20;;;5.70;;
17818;SDS011;9034;50.284;19.310;2023-06-19T01:33:15;7.85;;;7.03;;
17818;SDS011;9034;50.284;19.310;2023-06-19T01:34:22;8.55;;;7.60;;
17818;SDS011;9034;50.284;19.310;2023-06-19T01:35:28;9.25;;;8.32;;
17818;SDS011;9034;50.284;19.310;2023-06-19T01:36:32;8.27;;;7.47;;
17818;SDS011;9034;50.284;19.310;2023-06-19T01:37:34;8.48;;;7.00;;
17818;SDS011;9034;50.284;19.310;2023-06-19T01:38:40;9.52;;;8.40;;
17818;SDS011;9034;50.284;19.310;2023-06-19T01:39:43;8.32;;;7.53;;
17818;SDS011;9034;50.284;19.310;2023-06-19T01:40:47;8.85;;;7.95;;
17818;SDS011;9034;50.284;19.310;2023-06-19T01:41:51;10.80;;;8.68;;
17818;SDS011;9034;50.284;19.310;2023-06-19T01:42:55;8.82;;;7.18;;
17818;SDS011;9034;50.284;19.310;2023-06-19T01:43:57;6.60;;;5.90;;
17818;SDS011;9034;50.284;19.310;2023-06-19T01:45:00;8.60;;;7.80;;
17818;SDS011;9034;50.284;19.310;2023-06-19T01:46:04;9.90;;;8.90;;
17818;SDS011;9034;50.284;19.310;2023-06-19T01:47:09;8.52;;;7.65;;
17818;SDS011;9034;50.284;19.310;2023-06-19T01:48:11;12.20;;;9.02;;
17818;SDS011;9034;50.284;19.310;2023-06-19T01:49:16;16.20;;;7.55;;
17818;SDS011;9034;50.284;19.310;2023-06-19T01:50:20;26.38;;;7.05;;
17818;SDS011;9034;50.284;19.310;2023-06-19T01:51:24;21.38;;;6.30;;
17818;SDS011;9034;50.284;19.310;2023-06-19T01:52:26;6.30;;;5.63;;
17818;SDS011;9034;50.284;19.310;2023-06-19T01:53:29;7.57;;;6.60;;
17818;SDS011;9034;50.284;19.310;2023-06-19T01:54:33;12.65;;;9.45;;
17818;SDS011;9034;50.284;19.310;2023-06-19T01:55:36;10.05;;;9.02;;
17818;SDS011;9034;50.284;19.310;2023-06-19T01:56:38;8.18;;;6.80;;
17818;SDS011;9034;50.284;19.310;2023-06-19T01:57:41;6.32;;;5.80;;
17818;SDS011;9034;50.284;19.310;2023-06-19T01:58:43;9.90;;;6.97;;
17818;SDS011;9034;50.284;19.310;2023-06-19T01:59:46;7.75;;;5.30;;
17818;SDS011;9034;50.284;19.310;2023-06-19T02:00:48;7.68;;;6.97;;
17818;SDS011;9034;50.284;19.310;2023-06-19T02:01:51;5.93;;;5.43;;
17818;SDS011;9034;50.284;19.310;2023-06-19T02:02:53;6.95;;;6.35;;
17818;SDS011;9034;50.284;19.310;2023-06-19T02:03:56;8.25;;;7.15;;
17818;SDS011;9034;50.284;19.310;2023-06-19T02:04:58;7.65;;;6.93;;
17818;SDS011;9034;50.284;19.310;2023-06-19T02:06:01;9.32;;;8.02;;
17818;SDS011;9034;50.284;19.310;2023-06-19T02:07:03;8.00;;;7.18;;
17818;SDS011;9034;50.284;19.310;2023-06-19T02:08:06;9.18;;;8.30;;
17818;SDS011;9034;50.284;19.310;2023-06-19T02:09:10;11.80;;;8.13;;
17818;SDS011;9034;50.284;19.310;2023-06-19T02:10:14;10.00;;;7.38;;
17818;SDS011;9034;50.284;19.310;2023-06-19T02:11:16;9.15;;;8.25;;
17818;SDS011;9034;50.284;19.310;2023-06-19T02:12:19;11.70;;;8.48;;
17818;SDS011;9034;50.284;19.310;2023-06-19T02:13:21;11.05;;;9.05;;
17818;SDS011;9034;50.284;19.310;2023-06-19T02:14:24;11.43;;;8.80;;
17818;SDS011;9034;50.284;19.310;2023-06-19T02:15:26;9.50;;;8.52;;
17818;SDS011;9034;50.284;19.310;2023-06-19T02:16:29;9.68;;;8.77;;
17818;SDS011;9034;50.284;19.310;2023-06-19T02:17:31;9.23;;;8.23;;
17818;SDS011;9034;50.284;19.310;2023-06-19T02:18:34;9.35;;;8.40;;
17818;SDS011;9034;50.284;19.310;2023-06-19T02:19:36;10.02;;;9.02;;
17818;SDS011;9034;50.284;19.310;2023-06-19T02:20:39;11.27;;;9.95;;
17818;SDS011;9034;50.284;19.310;2023-06-19T02:21:41;18.98;;;9.48;;
17818;SDS011;9034;50.284;19.310;2023-06-19T02:22:44;25.75;;;10.80;;
17818;SDS011;9034;50.284;19.310;2023-06-19T02:23:46;11.07;;;9.27;;
17818;SDS011;9034;50.284;19.310;2023-06-19T02:24:49;26.58;;;9.13;;
17818;SDS011;9034;50.284;19.310;2023-06-19T02:25:52;14.18;;;8.07;;
17818;SDS011;9034;50.284;19.310;2023-06-19T02:26:55;9.30;;;8.35;;
17818;SDS011;9034;50.284;19.310;2023-06-19T02:27:58;9.60;;;8.60;;
17818;SDS011;9034;50.284;19.310;2023-06-19T02:29:02;9.27;;;8.10;;
17818;SDS011;9034;50.284;19.310;2023-06-19T02:30:04;10.23;;;8.38;;
17818;SDS011;9034;50.284;19.310;2023-06-19T02:31:08;12.05;;;8.38;;
17818;SDS011;9034;50.284;19.310;2023-06-19T02:32:12;10.85;;;9.43;;
17818;SDS011;9034;50.284;19.310;2023-06-19T02:33:14;10.82;;;8.95;;
17818;SDS011;9034;50.284;19.310;2023-06-19T02:34:16;11.48;;;9.65;;
17818;SDS011;9034;50.284;19.310;2023-06-19T02:35:21;11.35;;;9.13;;
17818;SDS011;9034;50.284;19.310;2023-06-19T02:36:23;13.18;;;10.77;;
17818;SDS011;9034;50.284;19.310;2023-06-19T02:37:26;13.10;;;11.13;;
17818;SDS011;9034;50.284;19.310;2023-06-19T02:38:27;13.43;;;10.82;;
17818;SDS011;9034;50.284;19.310;2023-06-19T02:39:31;13.15;;;11.57;;
17818;SDS011;9034;50.284;19.310;2023-06-19T02:40:33;12.65;;;10.55;;
17818;SDS011;9034;50.284;19.310;2023-06-19T02:41:37;13.82;;;11.32;;
17818;SDS011;9034;50.284;19.310;2023-06-19T02:42:39;12.02;;;10.30;;
17818;SDS011;9034;50.284;19.310;2023-06-19T02:43:42;11.93;;;10.55;;
17818;SDS011;9034;50.284;19.310;2023-06-19T02:44:45;11.90;;;10.40;;
17818;SDS011;9034;50.284;19.310;2023-06-19T02:45:48;11.73;;;10.25;;
17818;SDS011;9034;50.284;19.310;2023-06-19T02:46:50;10.82;;;9.77;;
17818;SDS011;9034;50.284;19.310;2023-06-19T02:47:52;12.00;;;10.60;;
17818;SDS011;9034;50.284;19.310;2023-06-19T02:48:54;12.18;;;10.65;;
17818;SDS011;9034;50.284;19.310;2023-06-19T02:49:57;12.68;;;10.32;;
17818;SDS011;9034;50.284;19.310;2023-06-19T02:51:00;11.27;;;10.18;;
17818;SDS011;9034;50.284;19.310;2023-06-19T02:52:04;11.43;;;10.27;;
17818;SDS011;9034;50.284;19.310;2023-06-19T02:53:06;11.00;;;9.90;;
17818;SDS011;9034;50.284;19.310;2023-06-19T02:54:09;9.88;;;8.88;;
17818;SDS011;9034;50.284;19.310;2023-06-19T02:55:11;11.38;;;9.32;;
17818;SDS011;9034;50.284;19.310;2023-06-19T02:56:14;11.65;;;9.45;;
17818;SDS011;9034;50.284;19.310;2023-06-19T02:57:17;13.10;;;9.13;;
17818;SDS011;9034;50.284;19.310;2023-06-19T02:58:20;9.68;;;8.63;;
17818;SDS011;9034;50.284;19.310;2023-06-19T02:59:22;10.45;;;9.40;;
17818;SDS011;9034;50.284;19.310;2023-06-19T03:00:24;12.10;;;10.23;;
17818;SDS011;9034;50.284;19.310;2023-06-19T03:01:28;11.13;;;9.93;;
17818;SDS011;9034;50.284;19.310;2023-06-19T03:02:31;10.27;;;9.27;;
17818;SDS011;9034;50.284;19.310;2023-06-19T03:03:34;13.90;;;10.65;;
17818;SDS011;9034;50.284;19.310;2023-06-19T03:04:39;9.93;;;8.93;;
17818;SDS011;9034;50.284;19.310;2023-06-19T03:05:42;12.02;;;10.13;;
17818;SDS011;9034;50.284;19.310;2023-06-19T03:06:44;13.55;;;11.02;;
17818;SDS011;9034;50.284;19.310;2023-06-19T03:07:46;13.75;;;12.00;;
17818;SDS011;9034;50.284;19.310;2023-06-19T03:08:51;13.18;;;11.40;;
17818;SDS011;9034;50.284;19.310;2023-06-19T03:09:53;15.63;;;12.27;;
17818;SDS011;9034;50.284;19.310;2023-06-19T03:10:56;14.35;;;12.75;;
17818;SDS011;9034;50.284;19.310;2023-06-19T03:11:59;14.68;;;12.25;;
17818;SDS011;9034;50.284;19.310;2023-06-19T03:13:03;13.95;;;10.65;;
17818;SDS011;9034;50.284;19.310;2023-06-19T03:14:06;12.27;;;11.02;;
17818;SDS011;9034;50.284;19.310;2023-06-19T03:15:12;11.88;;;10.68;;
17818;SDS011;9034;50.284;19.310;2023-06-19T03:16:18;11.88;;;10.02;;
17818;SDS011;9034;50.284;19.310;2023-06-19T03:17:23;11.30;;;10.07;;
17818;SDS011;9034;50.284;19.310;2023-06-19T03:18:25;11.60;;;10.40;;
17818;SDS011;9034;50.284;19.310;2023-06-19T03:19:28;10.80;;;9.70;;
17818;SDS011;9034;50.284;19.310;2023-06-19T03:20:30;11.82;;;10.02;;
17818;SDS011;9034;50.284;19.310;2023-06-19T03:21:33;11.25;;;10.20;;
17818;SDS011;9034;50.284;19.310;2023-06-19T03:22:36;13.13;;;11.82;;
17818;SDS011;9034;50.284;19.310;2023-06-19T03:23:40;13.05;;;11.68;;
17818;SDS011;9034;50.284;19.310;2023-06-19T03:24:42;13.57;;;11.32;;
17818;SDS011;9034;50.284;19.310;2023-06-19T03:25:51;12.55;;;11.15;;
17818;SDS011;9034;50.284;19.310;2023-06-19T03:26:54;18.33;;;12.68;;
17818;SDS011;9034;50.284;19.310;2023-06-19T03:27:57;15.02;;;13.43;;
17818;SDS011;9034;50.284;19.310;2023-06-19T03:29:00;14.55;;;12.93;;
17818;SDS011;9034;50.284;19.310;2023-06-19T03:30:12;14.45;;;11.90;;
17818;SDS011;9034;50.284;19.310;2023-06-19T03:31:16;17.23;;;13.90;;
17818;SDS011;9034;50.284;19.310;2023-06-19T03:32:18;17.80;;;15.90;;
17818;SDS011;9034;50.284;19.310;2023-06-19T03:33:22;24.73;;;18.73;;
17818;SDS011;9034;50.284;19.310;2023-06-19T03:34:26;17.58;;;15.70;;
17818;SDS011;9034;50.284;19.310;2023-06-19T03:35:28;17.08;;;14.90;;
17818;SDS011;9034;50.284;19.310;2023-06-19T03:36:32;19.85;;;15.80;;
17818;SDS011;9034;50.284;19.310;2023-06-19T03:37:41;21.58;;;16.75;;
17818;SDS011;9034;50.284;19.310;2023-06-19T03:38:43;19.10;;;16.08;;
17818;SDS011;9034;50.284;19.310;2023-06-19T03:39:48;19.90;;;16.52;;
17818;SDS011;9034;50.284;19.310;2023-06-19T03:40:50;16.55;;;14.85;;
17818;SDS011;9034;50.284;19.310;2023-06-19T03:41:53;18.63;;;15.63;;
17818;SDS011;9034;50.284;19.310;2023-06-19T03:42:55;17.63;;;14.98;;
17818;SDS011;9034;50.284;19.310;2023-06-19T03:43:59;17.58;;;15.68;;
17818;SDS011;9034;50.284;19.310;2023-06-19T03:45:02;18.38;;;13.93;;
17818;SDS011;9034;50.284;19.310;2023-06-19T03:46:05;19.42;;;14.82;;
17818;SDS011;9034;50.284;19.310;2023-06-19T03:47:10;17.85;;;13.82;;
17818;SDS011;9034;50.284;19.310;2023-06-19T03:48:13;18.83;;;14.32;;
17818;SDS011;9034;50.284;19.310;2023-06-19T03:49:15;16.70;;;14.18;;
17818;SDS011;9034;50.284;19.310;2023-06-19T03:50:18;17.15;;;14.25;;
17818;SDS011;9034;50.284;19.310;2023-06-19T03:51:25;16.58;;;14.27;;
17818;SDS011;9034;50.284;19.310;2023-06-19T03:52:30;17.27;;;13.68;;
17818;SDS011;9034;50.284;19.310;2023-06-19T03:53:32;17.45;;;13.80;;
17818;SDS011;9034;50.284;19.310;2023-06-19T03:54:35;19.15;;;14.25;;
17818;SDS011;9034;50.284;19.310;2023-06-19T03:55:37;16.67;;;14.10;;
17818;SDS011;9034;50.284;19.310;2023-06-19T03:56:40;15.70;;;14.05;;
17818;SDS011;9034;50.284;19.310;2023-06-19T03:57:42;16.52;;;13.52;;
17818;SDS011;9034;50.284;19.310;2023-06-19T03:58:45;17.45;;;14.63;;
17818;SDS011;9034;50.284;19.310;2023-06-19T03:59:50;20.08;;;15.25;;
17818;SDS011;9034;50.284;19.310;2023-06-19T04:00:56;16.67;;;13.23;;
17818;SDS011;9034;50.284;19.310;2023-06-19T04:01:58;16.02;;;13.35;;
17818;SDS011;9034;50.284;19.310;2023-06-19T04:03:01;17.80;;;14.07;;
17818;SDS011;9034;50.284;19.310;2023-06-19T04:04:03;15.98;;;13.80;;
17818;SDS011;9034;50.284;19.310;2023-06-19T04:05:06;15.55;;;14.05;;
17818;SDS011;9034;50.284;19.310;2023-06-19T04:06:08;18.58;;;14.25;;
17818;SDS011;9034;50.284;19.310;2023-06-19T04:07:13;21.15;;;14.68;;
17818;SDS011;9034;50.284;19.310;2023-06-19T04:08:16;16.80;;;14.95;;
17818;SDS011;9034;50.284;19.310;2023-06-19T04:09:19;16.60;;;14.13;;
17818;SDS011;9034;50.284;19.310;2023-06-19T04:10:20;18.08;;;13.20;;
17818;SDS011;9034;50.284;19.310;2023-06-19T04:11:24;17.92;;;13.80;;
17818;SDS011;9034;50.284;19.310;2023-06-19T04:12:26;17.42;;;14.05;;
17818;SDS011;9034;50.284;19.310;2023-06-19T04:13:28;15.82;;;13.23;;
17818;SDS011;9034;50.284;19.310;2023-06-19T04:14:30;15.20;;;13.60;;
17818;SDS011;9034;50.284;19.310;2023-06-19T04:15:34;18.73;;;14.18;;
17818;SDS011;9034;50.284;19.310;2023-06-19T04:16:37;22.23;;;13.73;;
17818;SDS011;9034;50.284;19.310;2023-06-19T04:17:40;19.10;;;13.77;;
17818;SDS011;9034;50.284;19.310;2023-06-19T04:18:42;14.48;;;12.98;;
17818;SDS011;9034;50.284;19.310;2023-06-19T04:19:45;20.30;;;13.50;;
17818;SDS011;9034;50.284;19.310;2023-06-19T04:20:47;15.60;;;13.93;;
17818;SDS011;9034;50.284;19.310;2023-06-19T04:21:50;18.15;;;13.23;;
17818;SDS011;9034;50.284;19.310;2023-06-19T04:22:52;15.40;;;13.73;;
17818;SDS011;9034;50.284;19.310;2023-06-19T04:23:55;19.17;;;13.75;;
17818;SDS011;9034;50.284;19.310;2023-06-19T04:24:57;19.98;;;13.85;;
17818;SDS011;9034;50.284;19.310;2023-06-19T04:26:00;19.30;;;13.82;;
17818;SDS011;9034;50.284;19.310;2023-06-19T04:27:02;16.90;;;13.10;;
17818;SDS011;9034;50.284;19.310;2023-06-19T04:28:05;18.85;;;14.68;;
17818;SDS011;9034;50.284;19.310;2023-06-19T04:29:07;15.38;;;13.30;;
17818;SDS011;9034;50.284;19.310;2023-06-19T04:30:18;16.38;;;13.00;;
17818;SDS011;9034;50.284;19.310;2023-06-19T04:31:24;16.60;;;12.25;;
17818;SDS011;9034;50.284;19.310;2023-06-19T04:32:28;16.77;;;12.65;;
17818;SDS011;9034;50.284;19.310;2023-06-19T04:33:30;19.63;;;12.07;;
17818;SDS011;9034;50.284;19.310;2023-06-19T04:34:33;20.88;;;11.77;;
17818;SDS011;9034;50.284;19.310;2023-06-19T04:35:35;16.63;;;12.10;;
17818;SDS011;9034;50.284;19.310;2023-06-19T04:36:41;13.45;;;11.00;;
17818;SDS011;9034;50.284;19.310;2023-06-19T04:37:45;17.63;;;11.60;;
17818;SDS011;9034;50.284;19.310;2023-06-19T04:38:50;15.00;;;11.43;;
17818;SDS011;9034;50.284;19.310;2023-06-19T04:39:54;16.77;;;11.02;;
17818;SDS011;9034;50.284;19.310;2023-06-19T04:40:57;16.00;;;10.30;;
17818;SDS011;9034;50.284;19.310;2023-06-19T04:42:00;15.88;;;11.23;;
17818;SDS011;9034;50.284;19.310;2023-06-19T04:43:02;16.27;;;11.15;;
17818;SDS011;9034;50.284;19.310;2023-06-19T04:44:07;13.93;;;10.15;;
17818;SDS011;9034;50.284;19.310;2023-06-19T04:45:10;14.93;;;11.00;;
17818;SDS011;9034;50.284;19.310;2023-06-19T04:46:13;11.30;;;9.55;;
17818;SDS011;9034;50.284;19.310;2023-06-19T04:47:16;15.52;;;10.15;;
17818;SDS011;9034;50.284;19.310;2023-06-19T04:48:20;14.50;;;10.57;;
17818;SDS011;9034;50.284;19.310;2023-06-19T04:49:27;12.48;;;9.65;;
17818;SDS011;9034;50.284;19.310;2023-06-19T04:50:34;11.02;;;9.43;;
17818;SDS011;9034;50.284;19.310;2023-06-19T04:51:36;14.57;;;10.57;;
17818;SDS011;9034;50.284;19.310;2023-06-19T04:52:39;13.38;;;9.85;;
17818;SDS011;9034;50.284;19.310;2023-06-19T04:53:41;10.50;;;8.95;;
17818;SDS011;9034;50.284;19.310;2023-06-19T04:54:44;12.00;;;9.23;;
17818;SDS011;9034;50.284;19.310;2023-06-19T04:55:46;16.13;;;9.80;;
17818;SDS011;9034;50.284;19.310;2023-06-19T04:56:49;11.25;;;9.10;;
17818;SDS011;9034;50.284;19.310;2023-06-19T04:57:51;13.07;;;10.65;;
17818;SDS011;9034;50.284;19.310;2023-06-19T04:58:53;16.02;;;10.65;;
17818;SDS011;9034;50.284;19.310;2023-06-19T04:59:57;15.77;;;10.00;;
17818;SDS011;9034;50.284;19.310;2023-06-19T05:01:00;11.07;;;9.95;;
17818;SDS011;9034;50.284;19.310;2023-06-19T05:02:02;15.90;;;10.73;;
17818;SDS011;9034;50.284;19.310;2023-06-19T05:03:07;16.50;;;10.05;;
17818;SDS011;9034;50.284;19.310;2023-06-19T05:04:09;14.98;;;10.68;;
17818;SDS011;9034;50.284;19.310;2023-06-19T05:05:12;13.52;;;10.23;;
17818;SDS011;9034;50.284;19.310;2023-06-19T05:06:16;19.67;;;11.50;;
17818;SDS011;9034;50.284;19.310;2023-06-19T05:07:19;10.93;;;9.32;;
17818;SDS011;9034;50.284;19.310;2023-06-19T05:08:21;12.38;;;9.85;;
17818;SDS011;9034;50.284;19.310;2023-06-19T05:09:24;13.35;;;9.55;;
17818;SDS011;9034;50.284;19.310;2023-06-19T05:10:26;11.15;;;9.55;;
17818;SDS011;9034;50.284;19.310;2023-06-19T05:11:29;10.95;;;9.32;;
17818;SDS011;9034;50.284;19.310;2023-06-19T05:12:31;11.23;;;9.40;;
17818;SDS011;9034;50.284;19.310;2023-06-19T05:13:34;11.02;;;9.93;;
17818;SDS011;9034;50.284;19.310;2023-06-19T05:14:35;12.40;;;9.77;;
17818;SDS011;9034;50.284;19.310;2023-06-19T05:15:38;11.73;;;9.50;;
17818;SDS011;9034;50.284;19.310;2023-06-19T05:16:40;15.93;;;9.82;;
17818;SDS011;9034;50.284;19.310;2023-06-19T05:17:44;14.10;;;10.18;;
17818;SDS011;9034;50.284;19.310;2023-06-19T05:18:49;11.43;;;10.23;;
17818;SDS011;9034;50.284;19.310;2023-06-19T05:19:52;11.93;;;9.60;;
17818;SDS011;9034;50.284;19.310;2023-06-19T05:20:54;14.88;;;9.70;;
17818;SDS011;9034;50.284;19.310;2023-06-19T05:21:57;10.77;;;9.05;;
17818;SDS011;9034;50.284;19.310;2023-06-19T05:22:59;16.42;;;9.75;;
17818;SDS011;9034;50.284;19.310;2023-06-19T05:24:02;17.88;;;10.25;;
17818;SDS011;9034;50.284;19.310;2023-06-19T05:25:04;15.80;;;10.10;;
17818;SDS011;9034;50.284;19.310;2023-06-19T05:26:08;11.50;;;9.18;;
17818;SDS011;9034;50.284;19.310;2023-06-19T05:27:10;11.35;;;9.02;;
17818;SDS011;9034;50.284;19.310;2023-06-19T05:28:13;11.63;;;9.63;;
17818;SDS011;9034;50.284;19.310;2023-06-19T05:29:15;12.60;;;9.70;;
17818;SDS011;9034;50.284;19.310;2023-06-19T05:30:17;10.50;;;9.10;;
17818;SDS011;9034;50.284;19.310;2023-06-19T05:31:19;12.03;;;9.10;;
17818;SDS011;9034;50.284;19.310;2023-06-19T05:32:22;10.70;;;9.37;;
17818;SDS011;9034;50.284;19.310;2023-06-19T05:33:24;12.00;;;8.70;;
17818;SDS011;9034;50.284;19.310;2023-06-19T05:34:28;11.80;;;9.43;;
17818;SDS011;9034;50.284;19.310;2023-06-19T05:35:31;12.47;;;10.33;;
17818;SDS011;9034;50.284;19.310;2023-06-19T05:36:34;10.87;;;8.47;;
17818;SDS011;9034;50.284;19.310;2023-06-19T05:37:35;17.13;;;9.90;;
17818;SDS011;9034;50.284;19.310;2023-06-19T05:38:40;15.03;;;9.87;;
17818;SDS011;9034;50.284;19.310;2023-06-19T05:39:42;14.67;;;10.07;;
17818;SDS011;9034;50.284;19.310;2023-06-19T05:40:45;11.80;;;9.53;;
17818;SDS011;9034;50.284;19.310;2023-06-19T05:41:46;14.27;;;9.50;;
17818;SDS011;9034;50.284;19.310;2023-06-19T05:42:49;11.07;;;9.80;;
17818;SDS011;9034;50.284;19.310;2023-06-19T05:43:51;11.33;;;10.23;;
17818;SDS011;9034;50.284;19.310;2023-06-19T05:44:54;12.87;;;9.80;;
17818;SDS011;9034;50.284;19.310;2023-06-19T05:45:56;10.73;;;9.63;;
17818;SDS011;9034;50.284;19.310;2023-06-19T05:47:00;14.43;;;9.87;;
17818;SDS011;9034;50.284;19.310;2023-06-19T05:48:02;10.07;;;8.97;;
17818;SDS011;9034;50.284;19.310;2023-06-19T05:49:05;9.63;;;8.73;;
17818;SDS011;9034;50.284;19.310;2023-06-19T05:50:09;10.33;;;9.33;;
17818;SDS011;9034;50.284;19.310;2023-06-19T05:51:12;12.47;;;9.80;;
17818;SDS011;9034;50.284;19.310;2023-06-19T05:52:14;11.47;;;9.70;;
17818;SDS011;9034;50.284;19.310;2023-06-19T05:53:17;14.97;;;9.33;;
17818;SDS011;9034;50.284;19.310;2023-06-19T05:54:18;11.83;;;9.20;;
17818;SDS011;9034;50.284;19.310;2023-06-19T05:55:21;10.80;;;9.70;;
17818;SDS011;9034;50.284;19.310;2023-06-19T05:56:23;13.87;;;9.00;;
17818;SDS011;9034;50.284;19.310;2023-06-19T05:57:26;11.00;;;9.77;;
17818;SDS011;9034;50.284;19.310;2023-06-19T05:58:28;15.07;;;10.07;;
17818;SDS011;9034;50.284;19.310;2023-06-19T05:59:31;15.03;;;9.93;;
17818;SDS011;9034;50.284;19.310;2023-06-19T06:00:32;9.47;;;8.47;;
17818;SDS011;9034;50.284;19.310;2023-06-19T06:01:35;10.00;;;9.00;;
17818;SDS011;9034;50.284;19.310;2023-06-19T06:02:38;13.10;;;9.33;;
17818;SDS011;9034;50.284;19.310;2023-06-19T06:03:41;9.87;;;8.37;;
17818;SDS011;9034;50.284;19.310;2023-06-19T06:04:43;10.30;;;8.83;;
17818;SDS011;9034;50.284;19.310;2023-06-19T06:05:47;11.03;;;8.60;;
17818;SDS011;9034;50.284;19.310;2023-06-19T06:06:51;12.17;;;8.77;;
17818;SDS011;9034;50.284;19.310;2023-06-19T06:07:54;12.70;;;9.80;;
17818;SDS011;9034;50.284;19.310;2023-06-19T06:08:56;15.00;;;9.60;;
17818;SDS011;9034;50.284;19.310;2023-06-19T06:09:58;9.90;;;8.70;;
17818;SDS011;9034;50.284;19.310;2023-06-19T06:11:00;10.03;;;9.03;;
17818;SDS011;9034;50.284;19.310;2023-06-19T06:12:04;9.83;;;8.83;;
17818;SDS011;9034;50.284;19.310;2023-06-19T06:13:06;11.17;;;8.80;;
17818;SDS011;9034;50.284;19.310;2023-06-19T06:14:09;12.20;;;9.20;;
17818;SDS011;9034;50.284;19.310;2023-06-19T06:15:14;10.63;;;9.53;;
17818;SDS011;9034;50.284;19.310;2023-06-19T06:16:17;26.00;;;12.13;;
17818;SDS011;9034;50.284;19.310;2023-06-19T06:17:18;25.50;;;11.97;;